createdAt,value
2018-09-10T00:00:19.362Z,25.08
2018-09-10T00:02:49.922Z,27.30
2018-09-10T00:05:20.738Z,19.00
2018-09-10T00:07:52.269Z,19.92
2018-09-10T00:10:22.858Z,16.95
2018-09-10T00:12:53.425Z,20.12
2018-09-10T00:15:23.778Z,23.67
2018-09-10T00:17:54.313Z,24.95
2018-09-10T00:20:24.891Z,16.00
2018-09-10T00:22:55.466Z,20.90
2018-09-10T00:25:26.125Z,21.90
2018-09-10T00:27:56.656Z,17.90
2018-09-10T00:30:27.214Z,19.87
2018-09-10T00:32:57.771Z,18.95
2018-09-10T00:35:28.334Z,25.20
2018-09-10T00:37:59.182Z,20.43
2018-09-10T00:40:29.742Z,16.73
2018-09-10T00:43:00.626Z,19.98
2018-09-10T00:45:31.392Z,18.10
2018-09-10T00:48:01.970Z,21.40
2018-09-10T00:50:32.302Z,29.92
2018-09-10T00:53:02.849Z,24.52
2018-09-10T00:55:33.419Z,21.45
2018-09-10T00:58:03.762Z,23.50
2018-09-10T01:00:34.108Z,21.42
2018-09-10T01:03:04.864Z,23.30
2018-09-10T01:05:35.698Z,24.30
2018-09-10T01:08:06.258Z,19.37
2018-09-10T01:10:36.814Z,20.35
2018-09-10T01:13:07.370Z,20.62
2018-09-10T01:15:38.194Z,30.45
2018-09-10T01:18:08.750Z,27.77
2018-09-10T01:20:39.553Z,19.57
2018-09-10T01:23:10.091Z,27.05
2018-09-10T01:25:40.446Z,23.57
2018-09-10T01:28:10.997Z,16.23
2018-09-10T01:30:41.570Z,19.35
2018-09-10T01:33:17.267Z,17.85
2018-09-10T01:35:47.829Z,19.07
2018-09-10T01:38:18.414Z,22.30
2018-09-10T01:40:49.298Z,20.08
2018-09-10T01:43:20.052Z,20.92
2018-09-10T01:45:50.910Z,20.77
2018-09-10T01:48:21.471Z,27.17
2018-09-10T01:50:52.312Z,26.57
2018-09-10T01:53:23.180Z,22.93
2018-09-10T01:55:53.747Z,25.02
2018-09-10T01:58:24.297Z,21.97
2018-09-10T02:00:54.857Z,18.98
2018-09-10T02:03:25.194Z,20.23
2018-09-10T02:05:56.346Z,20.35
2018-09-10T02:08:26.948Z,24.00
2018-09-10T02:10:57.526Z,22.80
2018-09-10T02:13:28.078Z,17.23
2018-09-10T02:15:58.953Z,19.48
2018-09-10T02:18:29.490Z,16.67
2018-09-10T02:21:00.255Z,21.97
2018-09-10T02:23:30.893Z,20.32
2018-09-10T02:26:01.422Z,22.20
2018-09-10T02:28:31.774Z,22.10
2018-09-10T02:31:02.717Z,21.02
2018-09-10T02:33:33.277Z,20.88
2018-09-10T02:36:04.544Z,18.23
2018-09-10T02:38:35.414Z,21.77
2018-09-10T02:41:06.394Z,20.17
2018-09-10T02:43:37.002Z,18.10
2018-09-10T02:46:08.093Z,19.42
2018-09-10T02:48:38.482Z,19.12
2018-09-10T02:51:09.334Z,19.87
2018-09-10T02:53:39.709Z,21.97
2018-09-10T02:56:11.036Z,22.58
2018-09-10T02:58:41.642Z,21.50
2018-09-10T03:01:12.342Z,17.73
2018-09-10T03:03:42.859Z,19.85
2018-09-10T03:06:13.205Z,21.02
2018-09-10T03:08:43.766Z,23.83
2018-09-10T03:11:14.932Z,20.20
2018-09-10T03:13:45.273Z,24.10
2018-09-10T03:16:15.890Z,17.27
2018-09-10T03:18:46.606Z,17.82
2018-09-10T03:21:17.522Z,16.65
2018-09-10T03:23:48.377Z,15.70
2018-09-10T03:26:18.956Z,11.30
2018-09-10T03:28:49.278Z,14.20
2018-09-10T03:31:19.614Z,15.53
2018-09-10T03:33:50.146Z,13.25
2018-09-10T03:36:20.699Z,15.75
2018-09-10T03:38:51.247Z,14.23
2018-09-10T03:41:21.785Z,12.58
2018-09-10T03:43:52.666Z,11.03
2018-09-10T03:46:23.534Z,9.13
2018-09-10T03:48:54.079Z,8.23
2018-09-10T03:51:24.634Z,9.55
2018-09-10T03:53:55.626Z,5.85
2018-09-10T03:56:26.406Z,8.28
2018-09-10T03:58:57.026Z,9.88
2018-09-10T04:01:27.894Z,10.88
2018-09-10T04:03:58.434Z,8.43
2018-09-10T04:06:29.261Z,4.97
2018-09-10T04:08:59.830Z,6.20
2018-09-10T04:11:30.554Z,8.60
2018-09-10T04:14:01.098Z,5.80
2018-09-10T04:16:31.645Z,5.03
2018-09-10T04:19:02.174Z,4.80
2018-09-10T04:21:32.731Z,3.42
2018-09-10T04:24:03.129Z,6.95
2018-09-10T04:26:33.789Z,3.45
2018-09-10T04:29:04.341Z,5.58
2018-09-10T04:31:35.075Z,5.75
2018-09-10T04:34:05.721Z,4.28
2018-09-10T04:36:36.051Z,8.15
2018-09-10T04:39:08.398Z,4.35
2018-09-10T04:41:43.053Z,6.08
2018-09-10T04:44:13.623Z,8.30
2018-09-10T04:46:44.233Z,6.60
2018-09-10T04:49:14.758Z,8.05
2018-09-10T04:51:45.351Z,8.90
2018-09-10T04:54:16.110Z,6.87
2018-09-10T04:56:46.671Z,8.13
2018-09-10T04:59:16.986Z,6.60
2018-09-10T05:01:47.370Z,7.12
2018-09-10T05:04:17.949Z,8.70
2018-09-10T05:06:48.882Z,7.50
2018-09-10T05:09:19.294Z,11.55
2018-09-10T05:11:50.242Z,8.98
2018-09-10T05:14:20.774Z,8.00
2018-09-10T05:16:51.344Z,8.63
2018-09-10T05:19:21.902Z,11.25
2018-09-10T05:21:52.250Z,9.83
2018-09-10T05:24:23.018Z,10.72
2018-09-10T05:26:53.642Z,12.58
2018-09-10T05:29:24.342Z,7.62
2018-09-10T05:31:55.263Z,6.28
2018-09-10T05:34:25.618Z,10.82
2018-09-10T05:36:56.474Z,9.43
2018-09-10T05:39:27.090Z,8.68
2018-09-10T05:41:57.667Z,5.85
2018-09-10T05:44:28.430Z,5.87
2018-09-10T05:46:59.002Z,7.28
2018-09-10T05:49:29.562Z,6.05
2018-09-10T05:52:00.126Z,7.08
2018-09-10T05:54:30.476Z,6.50
2018-09-10T05:57:01.070Z,4.80
2018-09-10T05:59:31.729Z,8.88
2018-09-10T06:02:02.514Z,9.98
2018-09-10T06:04:32.830Z,6.87
2018-09-10T06:07:03.547Z,8.65
2018-09-10T06:09:34.086Z,9.88
2018-09-10T06:12:04.441Z,15.90
2018-09-10T06:14:36.036Z,8.73
2018-09-10T06:17:06.802Z,8.63
2018-09-10T06:19:37.358Z,5.85
2018-09-10T06:22:07.934Z,6.20
2018-09-10T06:24:38.490Z,11.15
2018-09-10T06:27:09.422Z,6.08
2018-09-10T06:29:39.994Z,7.42
2018-09-10T06:32:10.593Z,7.40
2018-09-10T06:34:41.183Z,6.10
2018-09-10T06:37:11.779Z,6.20
2018-09-10T06:39:42.262Z,11.33
2018-09-10T06:42:12.610Z,6.95
2018-09-10T06:44:43.154Z,5.80
2018-09-10T06:47:13.705Z,7.10
2018-09-10T06:49:44.283Z,10.63
2018-09-10T06:52:14.619Z,8.63
2018-09-10T06:54:45.174Z,9.35
2018-09-10T06:57:15.766Z,8.85
2018-09-10T06:59:46.306Z,9.13
2018-09-10T07:02:17.134Z,8.58
2018-09-10T07:04:47.662Z,8.35
2018-09-10T07:07:18.456Z,5.87
2018-09-10T07:09:48.795Z,7.65
2018-09-10T07:12:19.648Z,6.12
2018-09-10T07:14:50.251Z,10.88
2018-09-10T07:17:20.921Z,11.20
2018-09-10T07:19:51.254Z,7.42
2018-09-10T07:22:21.823Z,4.67
2018-09-10T07:24:52.403Z,6.78
2018-09-10T07:27:22.418Z,7.25
2018-09-10T07:29:53.067Z,6.78
2018-09-10T07:32:23.645Z,5.50
2018-09-10T07:34:53.634Z,6.87
2018-09-10T07:37:24.298Z,4.55
2018-09-10T07:39:54.290Z,6.40
2018-09-10T07:42:25.438Z,6.85
2018-09-10T07:44:56.016Z,8.98
2018-09-10T07:47:25.823Z,3.67
2018-09-10T07:49:56.075Z,10.00
2018-09-10T07:52:26.602Z,7.42
2018-09-10T07:54:57.214Z,5.67
2018-09-10T07:57:27.267Z,7.85
2018-09-10T07:59:57.294Z,4.97
2018-09-10T08:02:27.930Z,7.08
2018-09-10T08:04:58.522Z,5.97
2018-09-10T08:07:30.106Z,4.58
2018-09-10T08:10:00.666Z,6.42
2018-09-10T08:12:31.250Z,7.03
2018-09-10T08:15:02.061Z,7.12
2018-09-10T08:17:32.617Z,7.42
2018-09-10T08:20:03.540Z,7.80
2018-09-10T08:22:34.095Z,5.28
2018-09-10T08:25:04.654Z,6.03
2018-09-10T08:27:35.390Z,11.75
2018-09-10T08:30:07.086Z,10.35
2018-09-10T08:32:37.650Z,6.15
2018-09-10T08:35:08.206Z,6.25
2018-09-10T08:37:39.106Z,6.78
2018-09-10T08:40:16.454Z,5.67
2018-09-10T08:42:46.515Z,5.22
2018-09-10T08:45:17.019Z,5.67
2018-09-10T08:47:49.375Z,6.87
2018-09-10T08:50:19.720Z,7.12
2018-09-10T08:52:50.338Z,9.88
2018-09-10T08:55:20.975Z,6.70
2018-09-10T08:57:51.674Z,6.42
2018-09-10T09:00:22.518Z,7.22
2018-09-10T09:02:53.263Z,8.90
2018-09-10T09:05:23.607Z,3.80
2018-09-10T09:07:54.243Z,9.65
2018-09-10T09:10:24.732Z,3.95
2018-09-10T09:12:55.294Z,9.90
2018-09-10T09:15:31.757Z,5.70
2018-09-10T09:18:02.547Z,5.08
2018-09-10T09:20:32.546Z,7.85
2018-09-10T09:23:03.153Z,9.55
2018-09-10T09:25:33.926Z,4.20
2018-09-10T09:28:04.490Z,5.72
2018-09-10T09:30:35.039Z,8.48
2018-09-10T09:33:05.606Z,4.45
2018-09-10T09:35:41.762Z,5.22
2018-09-10T09:38:17.798Z,5.35
2018-09-10T09:40:53.611Z,7.42
2018-09-10T09:43:29.445Z,7.60
2018-09-10T09:46:05.779Z,5.22
2018-09-10T09:48:36.365Z,7.08
2018-09-10T09:51:06.922Z,5.47
2018-09-10T09:53:38.126Z,4.83
2018-09-10T09:56:08.694Z,3.55
2018-09-10T09:58:39.262Z,3.72
2018-09-10T10:01:15.118Z,5.70
2018-09-10T10:03:51.174Z,13.43
2018-09-10T10:06:22.042Z,5.58
2018-09-10T10:08:52.890Z,6.40
2018-09-10T10:11:23.560Z,5.33
2018-09-10T10:13:54.310Z,4.62
2018-09-10T10:16:24.887Z,5.40
2018-09-10T10:18:55.634Z,4.70
2018-09-10T10:21:26.190Z,5.55
2018-09-10T10:23:56.826Z,9.98
2018-09-10T10:26:27.415Z,7.28
2018-09-10T10:28:58.009Z,9.48
2018-09-10T10:31:28.554Z,5.67
2018-09-10T10:33:59.498Z,5.75
2018-09-10T10:36:30.334Z,3.67
2018-09-10T10:39:01.094Z,6.05
2018-09-10T10:41:31.829Z,6.20
2018-09-10T10:44:02.643Z,5.78
2018-09-10T10:46:33.399Z,9.00
2018-09-10T10:49:04.020Z,4.60
2018-09-10T10:51:34.579Z,4.95
2018-09-10T10:54:05.148Z,7.55
2018-09-10T10:56:35.719Z,5.65
2018-09-10T10:59:06.356Z,7.65
2018-09-10T11:01:36.910Z,4.20
2018-09-10T11:04:07.543Z,5.53
2018-09-10T11:06:38.223Z,7.35
2018-09-10T11:09:09.356Z,3.30
2018-09-10T11:11:39.905Z,4.83
2018-09-10T11:14:10.626Z,6.05
2018-09-10T11:16:41.253Z,5.08
2018-09-10T11:19:11.759Z,8.33
2018-09-10T11:21:42.612Z,4.75
2018-09-10T11:24:13.859Z,6.87
2018-09-10T11:26:44.398Z,6.95
2018-09-10T11:29:14.738Z,7.45
2018-09-10T11:31:45.601Z,5.90
2018-09-10T11:34:15.964Z,4.58
2018-09-10T11:36:46.506Z,4.70
2018-09-10T11:39:16.846Z,6.33
2018-09-10T11:41:47.391Z,7.53
2018-09-10T11:44:17.722Z,7.00
2018-09-10T11:46:48.270Z,4.40
2018-09-10T11:49:18.834Z,4.85
2018-09-10T11:51:49.436Z,5.80
2018-09-10T11:54:19.994Z,4.53
2018-09-10T11:56:50.582Z,5.05
2018-09-10T11:59:21.155Z,6.37
2018-09-10T12:01:51.618Z,7.12
2018-09-10T12:04:22.336Z,7.40
2018-09-10T12:06:52.887Z,4.35
2018-09-10T12:09:23.455Z,5.60
2018-09-10T12:11:54.098Z,9.48
2018-09-10T12:14:24.580Z,6.95
2018-09-10T12:16:55.142Z,4.62
2018-09-10T12:19:25.706Z,6.75
2018-09-10T12:21:57.418Z,6.03
2018-09-10T12:24:27.984Z,4.58
2018-09-10T12:26:58.527Z,6.80
2018-09-10T12:29:29.068Z,8.68
2018-09-10T12:31:59.426Z,5.05
2018-09-10T12:34:29.975Z,5.60
2018-09-10T12:37:00.311Z,7.50
2018-09-10T12:39:30.884Z,5.20
2018-09-10T12:42:01.414Z,6.85
2018-09-10T12:44:31.979Z,6.80
2018-09-10T12:47:02.546Z,4.60
2018-09-10T12:49:33.191Z,4.17
2018-09-10T12:52:03.230Z,5.87
2018-09-10T12:54:34.013Z,10.95
2018-09-10T12:57:04.603Z,4.15
2018-09-10T12:59:35.226Z,6.00
2018-09-10T13:02:05.775Z,4.97
2018-09-10T13:04:36.119Z,4.53
2018-09-10T13:07:06.850Z,4.03
2018-09-10T13:09:37.408Z,4.15
2018-09-10T13:12:07.942Z,3.70
2018-09-10T13:14:38.282Z,4.28
2018-09-10T13:17:15.531Z,3.47
2018-09-10T13:19:46.091Z,3.65
2018-09-10T13:22:16.646Z,6.08
2018-09-10T13:24:47.202Z,8.20
2018-09-10T13:27:17.751Z,5.17
2018-09-10T13:29:48.347Z,5.55
2018-09-10T13:32:19.076Z,2.83
2018-09-10T13:34:49.666Z,4.55
2018-09-10T13:37:20.445Z,3.77
2018-09-10T13:39:52.363Z,3.62
2018-09-10T13:42:22.922Z,7.65
2018-09-10T13:44:53.493Z,4.62
2018-09-10T13:47:23.825Z,5.12
2018-09-10T13:49:54.714Z,4.17
2018-09-10T13:52:25.490Z,5.97
2018-09-10T13:54:56.051Z,6.47
2018-09-10T13:57:26.614Z,11.00
2018-09-10T13:59:57.298Z,4.50
2018-09-10T14:02:27.858Z,2.72
2018-09-10T14:04:58.402Z,4.87
2018-09-10T14:07:29.026Z,5.15
2018-09-10T14:09:59.810Z,5.20
2018-09-10T14:12:30.561Z,7.28
2018-09-10T14:15:01.572Z,3.72
2018-09-10T14:17:32.327Z,7.80
2018-09-10T14:20:03.712Z,4.65
2018-09-10T14:22:35.614Z,4.10
2018-09-10T14:25:06.787Z,3.10
2018-09-10T14:27:37.766Z,6.62
2018-09-10T14:30:08.307Z,3.30
2018-09-10T14:32:39.590Z,5.40
2018-09-10T14:35:10.855Z,6.20
2018-09-10T14:37:41.399Z,4.75
2018-09-10T14:40:12.134Z,6.65
2018-09-10T14:42:42.686Z,5.30
2018-09-10T14:45:13.550Z,3.65
2018-09-10T14:47:44.282Z,6.55
2018-09-10T14:50:15.034Z,7.53
2018-09-10T14:52:47.244Z,4.40
2018-09-10T14:55:18.553Z,8.30
2018-09-10T14:57:50.117Z,2.30
2018-09-10T15:00:24.964Z,8.33
2018-09-10T15:02:56.537Z,8.18
2018-09-10T15:05:29.501Z,11.30
2018-09-10T15:08:00.414Z,8.03
2018-09-10T15:10:31.089Z,7.67
2018-09-10T15:13:01.806Z,8.90
2018-09-10T15:15:32.474Z,6.15
2018-09-10T15:18:03.266Z,10.68
2018-09-10T15:20:33.889Z,5.50
2018-09-10T15:23:04.470Z,9.03
2018-09-10T15:25:35.562Z,6.58
2018-09-10T15:28:05.904Z,7.40
2018-09-10T15:30:35.683Z,5.87
2018-09-10T15:33:06.290Z,9.70
2018-09-10T15:35:37.285Z,8.03
2018-09-10T15:38:08.054Z,9.13
2018-09-10T15:40:38.793Z,6.72
2018-09-10T15:43:09.460Z,9.43
2018-09-10T15:45:40.042Z,8.90
2018-09-10T15:48:10.644Z,8.40
2018-09-10T15:50:41.274Z,7.87
2018-09-10T15:53:11.821Z,10.23
2018-09-10T15:55:42.580Z,11.45
2018-09-10T15:58:13.126Z,8.13
2018-09-10T16:00:44.093Z,8.78
2018-09-10T16:03:14.618Z,8.13
2018-09-10T16:05:45.159Z,6.00
2018-09-10T16:08:15.720Z,10.45
2018-09-10T16:10:46.502Z,9.58
2018-09-10T16:13:17.052Z,12.25
2018-09-10T16:15:47.622Z,15.43
2018-09-10T16:18:17.962Z,6.08
2018-09-10T16:20:48.788Z,9.70
2018-09-10T16:23:19.115Z,7.92
2018-09-10T16:25:49.684Z,11.53
2018-09-10T16:28:20.425Z,12.03
2018-09-10T16:30:50.990Z,12.28
2018-09-10T16:33:21.532Z,9.33
2018-09-10T16:35:52.146Z,11.40
2018-09-10T16:38:22.634Z,7.70
2018-09-10T16:40:52.957Z,9.28
2018-09-10T16:43:23.714Z,10.55
2018-09-10T16:45:54.266Z,10.58
2018-09-10T16:48:24.922Z,8.85
2018-09-10T16:50:55.570Z,8.95
2018-09-10T16:53:26.105Z,9.45
2018-09-10T16:55:56.646Z,9.35
2018-09-10T16:58:27.377Z,13.15
2018-09-10T17:00:58.714Z,10.93
2018-09-10T17:03:29.296Z,8.70
2018-09-10T17:06:00.102Z,7.78
2018-09-10T17:08:30.663Z,12.20
2018-09-10T17:11:00.991Z,8.30
2018-09-10T17:13:31.529Z,13.45
2018-09-10T17:16:01.928Z,13.95
2018-09-10T17:18:32.473Z,7.20
2018-09-10T17:21:03.125Z,8.93
2018-09-10T17:23:33.694Z,12.18
2018-09-10T17:26:03.692Z,16.62
2018-09-10T17:28:34.513Z,21.70
2018-09-10T17:31:05.058Z,13.85
2018-09-10T17:33:35.669Z,10.18
2018-09-10T17:36:06.210Z,7.83
2018-09-10T17:38:38.282Z,11.50
2018-09-10T17:41:10.076Z,13.30
2018-09-10T17:43:41.034Z,15.38
2018-09-10T17:46:11.077Z,12.55
2018-09-10T17:48:41.610Z,9.23
2018-09-10T17:51:12.209Z,13.85
2018-09-10T17:53:43.446Z,7.92
2018-09-10T17:56:13.986Z,12.40
2018-09-10T17:58:44.530Z,10.48
2018-09-10T18:01:15.702Z,11.18
2018-09-10T18:03:45.668Z,11.48
2018-09-10T18:06:16.454Z,11.93
2018-09-10T18:08:46.429Z,23.80
2018-09-10T18:11:16.522Z,9.58
2018-09-10T18:13:47.298Z,12.07
2018-09-10T18:16:17.058Z,13.03
2018-09-10T18:18:47.831Z,20.52
2018-09-10T18:21:18.402Z,9.63
2018-09-10T18:23:48.149Z,12.58
2018-09-10T18:26:18.682Z,13.10
2018-09-10T18:28:48.658Z,16.05
2018-09-10T18:31:19.210Z,11.40
2018-09-10T18:33:49.517Z,9.80
2018-09-10T18:36:19.282Z,13.15
2018-09-10T18:38:49.494Z,13.30
2018-09-10T18:41:20.130Z,10.08
2018-09-10T18:43:50.720Z,18.05
2018-09-10T18:46:20.909Z,11.03
2018-09-10T18:48:51.504Z,12.40
2018-09-10T18:51:21.414Z,6.30
2018-09-10T18:53:51.734Z,11.85
2018-09-10T18:56:22.278Z,14.68
2018-09-10T18:58:52.278Z,11.63
2018-09-10T19:01:23.135Z,15.32
2018-09-10T19:03:53.676Z,12.85
2018-09-10T19:06:24.218Z,15.23
2018-09-10T19:08:54.779Z,8.83
2018-09-10T19:11:25.034Z,12.33
2018-09-10T19:13:55.029Z,14.10
2018-09-10T19:16:26.060Z,15.08
2018-09-10T19:18:55.828Z,10.20
2018-09-10T19:21:25.790Z,10.65
2018-09-10T19:23:55.822Z,14.75
2018-09-10T19:26:26.351Z,11.73
2018-09-10T19:28:56.671Z,11.63
2018-09-10T19:31:43.564Z,13.30
2018-09-10T19:34:13.535Z,14.33
2018-09-10T19:36:44.430Z,10.72
2018-09-10T19:39:14.418Z,14.85
2018-09-10T19:41:44.726Z,11.10
2018-09-10T19:44:15.551Z,13.65
2018-09-10T19:46:45.866Z,15.70
2018-09-10T19:49:16.409Z,15.68
2018-09-10T19:51:46.734Z,7.97
2018-09-10T19:54:16.758Z,16.05
2018-09-10T19:56:47.758Z,10.75
2018-09-10T19:59:18.137Z,9.65
2018-09-10T20:01:48.833Z,14.35
2018-09-10T20:04:18.870Z,11.97
2018-09-10T20:06:49.186Z,12.10
2018-09-10T20:09:19.718Z,9.40
2018-09-10T20:11:49.797Z,17.15
2018-09-10T20:14:20.554Z,10.28
2018-09-10T20:16:51.382Z,9.70
2018-09-10T20:19:21.361Z,16.17
2018-09-10T20:21:51.343Z,9.70
2018-09-10T20:24:22.153Z,8.85
2018-09-10T20:26:52.465Z,17.52
2018-09-10T20:29:22.998Z,12.33
2018-09-10T20:31:53.310Z,11.15
2018-09-10T20:34:23.873Z,17.20
2018-09-10T20:36:54.209Z,11.97
2018-09-10T20:39:24.699Z,12.25
2018-09-10T20:41:54.638Z,11.50
2018-09-10T20:44:24.870Z,9.88
2018-09-10T20:46:54.645Z,9.23
2018-09-10T20:49:25.467Z,10.30
2018-09-10T20:51:55.642Z,7.12
2018-09-10T20:54:25.910Z,8.15
2018-09-10T20:56:55.906Z,13.50
2018-09-10T20:59:25.883Z,14.63
2018-09-10T21:01:55.938Z,10.88
2018-09-10T21:04:26.466Z,13.48
2018-09-10T21:06:56.430Z,8.28
2018-09-10T21:09:26.399Z,11.63
2018-09-10T21:11:56.933Z,8.63
2018-09-10T21:14:27.735Z,8.88
2018-09-10T21:16:57.711Z,12.13
2018-09-10T21:19:27.691Z,11.10
2018-09-10T21:22:04.468Z,13.28
2018-09-10T21:24:34.209Z,8.50
2018-09-10T21:27:04.734Z,9.88
2018-09-10T21:29:35.278Z,6.62
2018-09-10T21:32:05.040Z,11.55
2018-09-10T21:34:36.698Z,10.73
2018-09-10T21:37:06.921Z,6.42
2018-09-10T21:39:36.894Z,9.50
2018-09-10T21:42:06.870Z,13.75
2018-09-10T21:44:37.110Z,9.88
2018-09-10T21:47:06.961Z,11.38
2018-09-10T21:49:37.950Z,8.33
2018-09-10T21:52:07.722Z,13.98
2018-09-10T21:54:38.264Z,7.30
2018-09-10T21:57:08.794Z,8.45
2018-09-10T21:59:39.326Z,11.88
2018-09-10T22:02:10.114Z,5.87
2018-09-10T22:04:40.978Z,9.15
2018-09-10T22:07:11.282Z,9.40
2018-09-10T22:09:41.262Z,11.30
2018-09-10T22:12:11.355Z,9.23
2018-09-10T22:14:41.682Z,7.17
2018-09-10T22:17:11.661Z,8.08
2018-09-10T22:19:41.954Z,5.22
2018-09-10T22:22:12.574Z,6.40
2018-09-10T22:24:42.609Z,6.78
2018-09-10T22:27:12.521Z,12.68
2018-09-10T22:29:42.302Z,9.30
2018-09-10T22:32:12.267Z,7.47
2018-09-10T22:34:42.786Z,6.08
2018-09-10T22:37:13.109Z,10.25
2018-09-10T22:39:43.126Z,6.60
2018-09-10T22:42:13.348Z,11.45
2018-09-10T22:44:43.175Z,8.23
2018-09-10T22:47:13.138Z,8.73
2018-09-10T22:49:43.170Z,10.32
2018-09-10T22:52:13.322Z,5.45
2018-09-10T22:54:43.290Z,9.18
2018-09-10T22:57:13.874Z,10.55
2018-09-10T22:59:44.194Z,11.12
2018-09-10T23:02:14.498Z,12.18
2018-09-10T23:04:44.253Z,7.33
2018-09-10T23:07:14.470Z,12.15
2018-09-10T23:09:44.213Z,7.40
2018-09-10T23:12:13.967Z,6.92
2018-09-10T23:14:43.930Z,10.63
2018-09-10T23:17:13.673Z,9.03
2018-09-10T23:19:43.650Z,10.40
2018-09-10T23:22:13.622Z,8.70
2018-09-10T23:24:43.584Z,6.67
2018-09-10T23:27:13.550Z,8.13
2018-09-10T23:29:43.521Z,7.60
2018-09-10T23:32:13.485Z,7.33
2018-09-10T23:34:44.014Z,7.92
2018-09-10T23:37:14.594Z,8.58
2018-09-10T23:39:44.362Z,7.72
2018-09-10T23:42:14.329Z,10.58
2018-09-10T23:44:44.638Z,6.47
2018-09-10T23:47:14.619Z,9.65
2018-09-10T23:49:44.366Z,12.53
2018-09-10T23:52:14.342Z,11.93
2018-09-10T23:54:44.825Z,11.40
2018-09-10T23:57:15.839Z,7.67
2018-09-10T23:59:45.582Z,9.25
